createdAt,value
2022-11-01T04:46:35.623Z,14.00
2022-11-01T04:49:02.627Z,13.90
2022-11-01T04:51:29.594Z,13.90
2022-11-01T04:53:56.584Z,13.90
2022-11-01T04:56:23.591Z,13.90
2022-11-01T04:58:50.536Z,13.90
2022-11-01T05:01:17.554Z,13.90
2022-11-01T05:03:44.584Z,13.90
2022-11-01T05:06:11.548Z,13.90
2022-11-01T05:08:38.491Z,13.90
2022-11-01T05:11:05.561Z,14.00
2022-11-01T05:13:32.591Z,14.00
2022-11-01T05:18:49.209Z,14.00
2022-11-01T05:21:16.211Z,14.00
2022-11-01T05:23:43.154Z,14.10
2022-11-01T05:26:10.072Z,14.10
2022-11-01T05:28:37.103Z,14.10
2022-11-01T05:31:04.028Z,14.00
2022-11-01T05:33:30.975Z,14.10
2022-11-01T05:36:00.176Z,14.10
2022-11-01T05:38:27.099Z,14.10
2022-11-01T05:40:54.198Z,14.10
2022-11-01T05:43:21.152Z,14.10
2022-11-01T05:45:48.152Z,14.10
2022-11-01T05:48:15.116Z,14.10
2022-11-01T05:50:43.268Z,14.10
2022-11-01T05:53:10.537Z,14.10
2022-11-01T05:55:38.863Z,14.10
2022-11-01T05:58:06.078Z,14.10
2022-11-01T06:00:33.590Z,14.10
2022-11-01T06:03:00.981Z,14.10
2022-11-01T06:05:29.191Z,14.20
2022-11-01T06:07:56.520Z,14.20
2022-11-01T06:10:23.583Z,14.20
2022-11-01T06:12:50.500Z,14.20
2022-11-01T06:15:17.895Z,14.20
2022-11-01T06:17:44.883Z,14.20
2022-11-01T06:20:12.165Z,14.20
2022-11-01T06:22:39.534Z,14.20
2022-11-01T06:25:06.840Z,14.20
2022-11-01T06:27:33.792Z,14.10
2022-11-01T06:30:00.762Z,14.20
2022-11-01T06:32:27.681Z,14.20
2022-11-01T06:34:54.645Z,14.20
2022-11-01T06:37:21.563Z,14.20
2022-11-01T06:39:48.517Z,14.20
2022-11-01T06:42:15.460Z,14.20
2022-11-01T06:44:42.492Z,14.20
2022-11-01T06:47:09.572Z,14.20
2022-11-01T06:49:36.521Z,14.20
2022-11-01T06:52:04.985Z,14.20
2022-11-01T06:54:31.963Z,14.20
2022-11-01T06:56:58.914Z,14.20
2022-11-01T06:59:25.919Z,14.10
2022-11-01T07:01:52.975Z,14.20
2022-11-01T07:04:21.192Z,14.30
2022-11-01T07:06:48.783Z,14.30
2022-11-01T07:09:15.711Z,14.30
2022-11-01T07:11:42.670Z,14.30
2022-11-01T07:14:09.593Z,14.30
2022-11-01T07:16:36.858Z,14.30
2022-11-01T07:19:03.796Z,14.30
2022-11-01T07:21:30.745Z,14.30
2022-11-01T07:23:57.747Z,14.30
2022-11-01T07:26:24.713Z,14.40
2022-11-01T07:28:51.647Z,14.30
2022-11-01T07:31:18.788Z,14.30
2022-11-01T07:33:45.726Z,14.30
2022-11-01T07:36:12.647Z,14.30
2022-11-01T07:38:39.582Z,14.40
2022-11-01T07:41:06.580Z,14.40
2022-11-01T07:43:35.682Z,14.40
2022-11-01T07:46:07.128Z,14.40
2022-11-01T07:48:36.581Z,14.40
2022-11-01T07:51:05.728Z,14.40
2022-11-01T07:53:33.181Z,14.40
2022-11-01T07:56:01.458Z,14.40
2022-11-01T07:58:28.780Z,14.40
2022-11-01T08:00:55.836Z,14.50
2022-11-01T08:03:23.792Z,14.50
2022-11-01T08:05:50.802Z,14.50
2022-11-01T08:08:17.969Z,14.60
2022-11-01T08:10:45.377Z,14.60
2022-11-01T08:13:18.140Z,14.60
2022-11-01T08:15:45.782Z,14.60
2022-11-01T08:18:12.769Z,14.70
2022-11-01T08:20:41.069Z,14.70
2022-11-01T08:23:08.561Z,14.70
2022-11-01T08:25:36.133Z,14.70
2022-11-01T08:28:21.020Z,14.80
2022-11-01T08:30:49.298Z,14.80
2022-11-01T08:33:16.241Z,14.80
2022-11-01T08:35:48.860Z,14.90
2022-11-01T08:38:17.311Z,14.90
2022-11-01T08:40:44.232Z,14.90
2022-11-01T08:43:11.187Z,14.90
2022-11-01T08:45:38.358Z,14.90
2022-11-01T08:48:05.647Z,15.00
2022-11-01T08:50:33.906Z,15.10
2022-11-01T08:53:07.600Z,15.10
2022-11-01T08:55:37.867Z,15.10
2022-11-01T08:58:06.344Z,15.10
2022-11-01T09:00:33.942Z,15.20
2022-11-01T09:03:00.875Z,15.20
2022-11-01T09:05:31.094Z,15.30
2022-11-01T09:07:59.633Z,15.30
2022-11-01T09:10:27.181Z,15.30
2022-11-01T09:12:54.100Z,15.40
2022-11-01T09:15:21.022Z,15.40
2022-11-01T09:17:48.050Z,15.40
2022-11-01T09:20:15.394Z,15.50
2022-11-01T09:22:42.373Z,15.50
2022-11-01T09:25:09.576Z,15.50
2022-11-01T09:27:36.496Z,15.60
2022-11-01T09:30:04.699Z,15.60
2022-11-01T09:32:31.695Z,15.60
2022-11-01T09:34:58.618Z,15.60
2022-11-01T09:37:25.573Z,15.70
2022-11-01T09:39:52.504Z,15.70
2022-11-01T09:42:29.684Z,15.80
2022-11-01T09:44:58.533Z,15.80
2022-11-01T09:47:26.596Z,15.90
2022-11-01T09:50:05.033Z,15.90
2022-11-01T09:52:32.051Z,16.00
2022-11-01T09:54:59.119Z,16.00
2022-11-01T09:57:26.667Z,16.00
2022-11-01T10:00:13.561Z,16.00
2022-11-01T10:02:40.512Z,16.10
2022-11-01T10:05:17.720Z,16.20
2022-11-01T10:07:45.969Z,16.20
2022-11-01T10:10:12.900Z,16.20
2022-11-01T10:12:42.644Z,16.20
2022-11-01T10:15:28.258Z,16.30
2022-11-01T10:17:55.451Z,16.30
2022-11-01T10:20:24.532Z,16.40
2022-11-01T10:22:51.775Z,16.40
2022-11-01T10:25:22.735Z,16.50
2022-11-01T10:28:01.808Z,16.50
2022-11-01T10:30:30.624Z,16.60
2022-11-01T10:33:02.726Z,16.70
2022-11-01T10:35:35.196Z,16.70
2022-11-01T10:38:22.821Z,16.80
2022-11-01T10:40:55.208Z,16.80
2022-11-01T10:43:22.876Z,16.90
2022-11-01T10:45:51.432Z,16.90
2022-11-01T10:48:29.288Z,17.00
2022-11-01T10:50:59.983Z,17.00
2022-11-01T10:53:28.568Z,17.00
2022-11-01T10:55:57.681Z,17.10
2022-11-01T10:58:31.666Z,17.20
2022-11-01T11:00:59.830Z,17.20
2022-11-01T11:03:29.124Z,17.20
2022-11-01T11:05:59.271Z,17.20
2022-11-01T11:08:26.344Z,17.30
2022-11-01T11:10:55.202Z,17.30
2022-11-01T11:13:25.174Z,17.40
2022-11-01T11:15:56.894Z,17.40
2022-11-01T11:18:25.200Z,17.30
2022-11-01T11:20:53.747Z,17.40
2022-11-01T11:23:22.597Z,17.40
2022-11-01T11:25:50.604Z,17.40
2022-11-01T11:28:22.411Z,17.40
2022-11-01T11:30:49.532Z,17.40
2022-11-01T11:33:17.899Z,17.50
2022-11-01T11:35:52.811Z,17.50
2022-11-01T11:38:39.116Z,17.60
2022-11-01T11:41:06.156Z,17.60
2022-11-01T11:43:36.060Z,17.70
2022-11-01T11:46:03.121Z,17.70
2022-11-01T11:48:30.075Z,17.80
2022-11-01T11:51:04.723Z,17.80
2022-11-01T11:53:33.334Z,17.80
2022-11-01T11:56:02.123Z,17.90
2022-11-01T11:58:29.063Z,17.90
2022-11-01T12:01:06.958Z,17.90
2022-11-01T12:03:38.396Z,17.90
2022-11-01T12:06:07.017Z,18.00
2022-11-01T12:08:37.305Z,18.00
2022-11-01T12:11:05.091Z,18.00
2022-11-01T12:13:34.056Z,18.00
2022-11-01T12:16:30.330Z,18.10
2022-11-01T12:18:57.320Z,18.10
2022-11-01T12:21:26.192Z,18.10
2022-11-01T12:23:55.227Z,18.10
2022-11-01T12:26:23.514Z,18.20
2022-11-01T12:28:57.567Z,18.20
2022-11-01T12:31:27.577Z,18.20
2022-11-01T12:34:14.399Z,18.20
2022-11-01T12:36:44.236Z,18.20
2022-11-01T12:39:29.740Z,18.20
2022-11-01T12:42:02.190Z,18.30
2022-11-01T12:44:29.107Z,18.30
2022-11-01T12:46:59.963Z,18.30
2022-11-01T12:49:30.677Z,18.30
2022-11-01T12:52:01.775Z,18.40
2022-11-01T12:54:32.419Z,18.40
2022-11-01T12:56:59.531Z,18.40
2022-11-01T12:59:27.809Z,18.40
2022-11-01T13:02:13.324Z,18.40
2022-11-01T13:04:52.452Z,18.50
2022-11-01T13:07:38.180Z,18.50
2022-11-01T13:10:23.601Z,18.50
2022-11-01T13:12:56.440Z,18.50
2022-11-01T13:15:36.778Z,18.60
2022-11-01T13:18:42.133Z,18.60
2022-11-01T13:21:17.907Z,18.70
2022-11-01T13:23:54.179Z,18.70
2022-11-01T13:26:26.324Z,18.70
2022-11-01T13:28:58.049Z,18.70
2022-11-01T13:31:37.238Z,18.80
2022-11-01T13:34:23.856Z,18.80
2022-11-01T13:37:11.824Z,18.80
2022-11-01T13:39:46.882Z,18.80
2022-11-01T13:42:16.125Z,18.80
2022-11-01T13:44:45.716Z,18.90
2022-11-01T13:47:38.376Z,18.90
2022-11-01T13:50:23.796Z,18.90
2022-11-01T13:53:02.772Z,18.90
2022-11-01T13:55:43.694Z,18.90
2022-11-01T13:58:18.236Z,18.90
2022-11-01T14:00:46.553Z,18.90
2022-11-01T14:03:16.252Z,18.90
2022-11-01T14:05:44.423Z,19.00
2022-11-01T14:08:12.963Z,19.00
2022-11-01T14:10:39.859Z,19.00
2022-11-01T14:13:10.723Z,19.00
2022-11-01T14:15:59.325Z,19.00
2022-11-01T14:18:26.740Z,19.00
2022-11-01T14:20:54.652Z,19.10
2022-11-01T14:23:33.515Z,19.10
2022-11-01T14:26:18.650Z,19.10
2022-11-01T14:28:56.959Z,19.10
2022-11-01T14:31:25.615Z,19.10
2022-11-01T14:33:57.519Z,19.10
2022-11-01T14:36:29.077Z,19.10
2022-11-01T14:39:02.718Z,19.10
2022-11-01T14:41:32.489Z,19.00
2022-11-01T14:44:14.095Z,19.00
2022-11-01T14:46:46.245Z,19.00
2022-11-01T14:49:22.601Z,19.00
2022-11-01T14:52:00.087Z,19.00
2022-11-01T14:54:27.248Z,19.00
2022-11-01T14:56:55.732Z,19.00
2022-11-01T14:59:24.335Z,19.10
2022-11-01T15:01:55.885Z,19.00
2022-11-01T15:04:27.587Z,19.00
2022-11-01T15:06:54.932Z,19.00
2022-11-01T15:09:26.860Z,19.00
2022-11-01T15:11:55.052Z,19.00
2022-11-01T15:14:40.322Z,19.00
2022-11-01T15:17:15.318Z,18.90
2022-11-01T15:19:45.182Z,18.90
2022-11-01T15:22:19.332Z,18.90
2022-11-01T15:24:47.457Z,18.90
2022-11-01T15:27:16.163Z,18.90
2022-11-01T15:29:43.505Z,18.80
2022-11-01T15:32:23.778Z,18.80
2022-11-01T15:34:52.108Z,18.80
2022-11-01T15:37:21.486Z,18.80
2022-11-01T15:39:49.317Z,18.80
2022-11-01T15:42:19.525Z,18.80
2022-11-01T15:44:46.577Z,18.80
2022-11-01T15:47:20.535Z,18.80
2022-11-01T15:49:55.059Z,18.80
2022-11-01T15:52:26.175Z,18.80
2022-11-01T15:54:53.475Z,18.80
2022-11-01T15:57:20.430Z,18.80
2022-11-01T16:00:06.435Z,18.70
2022-11-01T16:02:45.064Z,18.70
2022-11-01T16:05:15.674Z,18.70
2022-11-01T16:07:43.348Z,18.70
2022-11-01T16:10:21.624Z,18.70
2022-11-01T16:12:48.823Z,18.70
2022-11-01T16:15:34.410Z,18.60
2022-11-01T16:18:13.890Z,18.60
2022-11-01T16:20:40.979Z,18.60
2022-11-01T16:23:08.748Z,18.60
2022-11-01T16:25:37.609Z,18.60
2022-11-01T16:28:10.419Z,18.50
2022-11-01T16:30:39.027Z,18.50
2022-11-01T16:33:22.123Z,18.50
2022-11-01T16:35:51.361Z,18.50
2022-11-01T16:38:33.281Z,18.40
2022-11-01T16:41:01.568Z,18.40
2022-11-01T16:43:31.129Z,18.30
2022-11-01T16:45:58.797Z,18.30
2022-11-01T16:48:30.033Z,18.30
2022-11-01T16:50:57.842Z,18.30
2022-11-01T16:53:25.788Z,18.30
2022-11-01T16:56:01.599Z,18.30
2022-11-01T16:58:32.880Z,18.30
2022-11-01T17:01:00.442Z,18.30
2022-11-01T17:03:27.865Z,18.30
2022-11-01T17:05:56.389Z,18.30
2022-11-01T17:08:24.569Z,18.30
2022-11-01T17:10:51.847Z,18.30
2022-11-01T17:13:18.835Z,18.30
2022-11-01T17:15:47.097Z,18.30
2022-11-01T17:18:33.880Z,18.30
2022-11-01T17:21:01.839Z,18.30
2022-11-01T17:23:28.895Z,18.30
2022-11-01T17:25:56.128Z,18.30
2022-11-01T17:28:26.234Z,18.30
2022-11-01T17:30:53.252Z,18.30
2022-11-01T17:33:22.895Z,18.30
2022-11-01T17:35:49.985Z,18.30
2022-11-01T17:38:19.495Z,18.30
2022-11-01T17:40:46.567Z,18.30
2022-11-01T17:43:17.282Z,18.20
2022-11-01T17:45:45.340Z,18.20
2022-11-01T17:48:12.745Z,18.20
2022-11-01T17:50:40.188Z,18.10
2022-11-01T17:53:07.468Z,18.10
2022-11-01T17:55:35.510Z,18.00
2022-11-01T17:58:02.703Z,18.00
2022-11-01T18:00:29.992Z,18.00
2022-11-01T18:02:56.917Z,17.90
2022-11-01T18:05:24.015Z,17.90
2022-11-01T18:07:52.342Z,17.90
2022-11-01T18:10:40.633Z,17.80
2022-11-01T18:13:36.795Z,17.80
2022-11-01T18:16:24.028Z,17.80
2022-11-01T18:18:58.156Z,17.70
2022-11-01T18:21:45.398Z,17.60
2022-11-01T18:24:18.389Z,17.60
2022-11-01T18:26:48.524Z,17.50
2022-11-01T18:29:16.687Z,17.50
2022-11-01T18:31:46.570Z,17.40
2022-11-01T18:34:20.724Z,17.40
2022-11-01T18:36:52.322Z,17.30
2022-11-01T18:39:39.426Z,17.30
2022-11-01T18:42:08.305Z,17.30
2022-11-01T18:44:36.080Z,17.20
2022-11-01T18:47:21.120Z,17.10
2022-11-01T18:49:51.992Z,17.10
2022-11-01T18:52:19.208Z,17.00
2022-11-01T18:54:56.677Z,17.00
2022-11-01T18:57:24.614Z,16.90
2022-11-01T18:59:52.918Z,16.90
2022-11-01T19:02:23.124Z,16.80
2022-11-01T19:04:50.904Z,16.70
2022-11-01T19:07:22.739Z,16.60
2022-11-01T19:09:53.001Z,16.60
2022-11-01T19:12:24.111Z,16.50
2022-11-01T19:15:13.612Z,16.40
2022-11-01T19:17:43.318Z,16.30
2022-11-01T19:20:19.272Z,16.20
2022-11-01T19:22:46.414Z,16.20
2022-11-01T19:25:19.726Z,16.20
2022-11-01T19:27:47.932Z,16.20
2022-11-01T19:30:23.592Z,16.10
2022-11-01T19:32:51.343Z,16.10
2022-11-01T19:35:22.103Z,16.10
2022-11-01T19:37:50.757Z,16.10
2022-11-01T19:40:27.882Z,16.00
2022-11-01T19:42:55.380Z,16.00
2022-11-01T19:45:24.464Z,16.00
2022-11-01T19:47:51.508Z,16.00
2022-11-01T19:50:27.004Z,16.00
2022-11-01T19:52:56.092Z,15.90
2022-11-01T19:55:35.715Z,15.90
2022-11-01T19:58:03.536Z,15.80
2022-11-01T20:00:31.148Z,15.70
2022-11-01T20:02:58.663Z,15.60
2022-11-01T20:05:27.444Z,15.70
2022-11-01T20:08:18.297Z,15.70
2022-11-01T20:10:45.245Z,15.70
2022-11-01T20:13:12.228Z,15.70
2022-11-01T20:15:39.151Z,15.60
2022-11-01T20:18:06.548Z,15.70
2022-11-01T20:20:33.658Z,15.60
2022-11-01T20:23:24.621Z,15.60
2022-11-01T20:25:47.513Z,15.60
2022-11-01T20:28:14.749Z,15.60
2022-11-01T20:30:41.764Z,15.60
2022-11-01T20:33:08.959Z,15.60
2022-11-01T20:35:35.910Z,15.60
2022-11-01T20:38:02.831Z,15.60
2022-11-01T20:40:29.796Z,15.60
2022-11-01T20:42:56.998Z,15.60
2022-11-01T20:45:24.025Z,15.70
2022-11-01T20:47:53.652Z,15.70
2022-11-01T20:50:20.672Z,15.70
2022-11-01T20:52:49.261Z,15.60
2022-11-01T20:55:16.309Z,15.60
2022-11-01T20:57:43.735Z,15.60
2022-11-01T21:00:13.395Z,15.50
2022-11-01T21:02:40.815Z,15.50
2022-11-01T21:05:30.245Z,15.50
2022-11-01T21:07:58.583Z,15.50
2022-11-01T21:10:27.188Z,15.40
2022-11-01T21:12:54.176Z,15.50
2022-11-01T21:15:29.695Z,15.50
2022-11-01T21:17:56.599Z,15.50
2022-11-01T21:20:24.390Z,15.50
2022-11-01T21:22:53.360Z,15.40
2022-11-01T21:25:22.112Z,15.40
2022-11-01T21:27:50.186Z,15.40
2022-11-01T21:30:19.375Z,15.40
2022-11-01T21:32:47.131Z,15.30
2022-11-01T21:35:19.821Z,15.30
2022-11-01T21:37:48.016Z,15.20
2022-11-01T21:40:22.540Z,15.20
2022-11-01T21:42:49.487Z,15.10
2022-11-01T21:45:25.352Z,15.10
2022-11-01T21:47:53.020Z,15.10
2022-11-01T21:50:19.955Z,15.10
2022-11-01T21:52:47.157Z,15.00
2022-11-01T21:55:14.109Z,14.90
2022-11-01T21:57:41.063Z,14.90
2022-11-01T22:00:08.943Z,14.90
2022-11-01T22:02:35.959Z,14.90
2022-11-01T22:05:03.175Z,14.80
2022-11-01T22:07:30.103Z,14.70
2022-11-01T22:09:57.042Z,14.50
2022-11-01T22:12:23.972Z,14.50
2022-11-01T22:14:50.897Z,14.50
2022-11-01T22:17:17.876Z,14.50
2022-11-01T22:19:44.799Z,14.50
2022-11-01T22:22:11.723Z,14.50
2022-11-01T22:24:38.717Z,14.50
2022-11-01T22:27:05.703Z,14.40
2022-11-01T22:29:32.632Z,14.40
2022-11-01T22:31:59.555Z,14.40
2022-11-01T22:34:26.479Z,14.40
2022-11-01T22:36:54.173Z,14.40
2022-11-01T22:39:22.361Z,14.40
2022-11-01T22:41:49.351Z,14.50
2022-11-01T22:44:25.950Z,14.50
2022-11-01T22:46:58.413Z,14.40
2022-11-01T22:49:30.890Z,14.40
2022-11-01T22:52:01.827Z,14.40
2022-11-01T22:54:28.778Z,14.50
2022-11-01T22:57:01.110Z,14.40
2022-11-01T22:59:33.028Z,14.40
2022-11-01T23:02:06.162Z,14.40
2022-11-01T23:04:33.997Z,14.40
2022-11-01T23:07:02.430Z,14.40
2022-11-01T23:09:29.412Z,14.40
2022-11-01T23:12:19.923Z,14.40
2022-11-01T23:14:47.067Z,14.40
2022-11-01T23:17:21.766Z,14.40
2022-11-01T23:19:52.880Z,14.40
2022-11-01T23:22:21.139Z,14.50
2022-11-01T23:24:48.976Z,14.50
2022-11-01T23:27:15.961Z,14.50
2022-11-01T23:29:43.050Z,14.50
2022-11-01T23:32:11.557Z,14.50
2022-11-01T23:34:38.589Z,14.60
2022-11-01T23:37:09.680Z,14.50
2022-11-01T23:39:36.620Z,14.50
2022-11-01T23:42:04.029Z,14.60
2022-11-01T23:44:33.247Z,14.50
2022-11-01T23:47:03.985Z,14.50
2022-11-01T23:49:32.946Z,14.50
2022-11-01T23:52:00.365Z,14.50
2022-11-01T23:54:33.879Z,14.40
2022-11-01T23:57:00.952Z,14.40
2022-11-01T23:59:27.909Z,14.40
